sensor_id;sensor_type;location;lat;lon;timestamp;P1;durP1;ratioP1;P2;durP2;ratioP2
19621;SDS011;9958;33.196;-97.114;2024-02-21T00:01:34;2.97;;;1.85;;
19621;SDS011;9958;33.196;-97.114;2024-02-21T00:04:02;2.47;;;1.70;;
19621;SDS011;9958;33.196;-97.114;2024-02-21T00:06:31;1.73;;;1.60;;
19621;SDS011;9958;33.196;-97.114;2024-02-21T00:08:59;4.20;;;2.13;;
19621;SDS011;9958;33.196;-97.114;2024-02-21T00:11:28;2.25;;;1.85;;
19621;SDS011;9958;33.196;-97.114;2024-02-21T00:13:56;3.08;;;1.83;;
19621;SDS011;9958;33.196;-97.114;2024-02-21T00:16:25;1.88;;;1.58;;
19621;SDS011;9958;33.196;-97.114;2024-02-21T00:18:55;1.85;;;1.60;;
19621;SDS011;9958;33.196;-97.114;2024-02-21T00:21:23;5.45;;;2.10;;
19621;SDS011;9958;33.196;-97.114;2024-02-21T00:23:51;5.32;;;1.92;;
19621;SDS011;9958;33.196;-97.114;2024-02-21T00:26:20;2.00;;;1.80;;
19621;SDS011;9958;33.196;-97.114;2024-02-21T00:28:48;5.10;;;2.03;;
19621;SDS011;9958;33.196;-97.114;2024-02-21T00:31:16;3.15;;;2.10;;
19621;SDS011;9958;33.196;-97.114;2024-02-21T00:33:45;2.45;;;1.52;;
19621;SDS011;9958;33.196;-97.114;2024-02-21T00:36:15;5.70;;;2.17;;
19621;SDS011;9958;33.196;-97.114;2024-02-21T00:38:43;6.40;;;2.00;;
19621;SDS011;9958;33.196;-97.114;2024-02-21T00:41:11;2.50;;;1.83;;
19621;SDS011;9958;33.196;-97.114;2024-02-21T00:43:41;3.13;;;1.65;;
19621;SDS011;9958;33.196;-97.114;2024-02-21T00:46:09;2.47;;;1.90;;
19621;SDS011;9958;33.196;-97.114;2024-02-21T00:48:37;2.10;;;1.67;;
19621;SDS011;9958;33.196;-97.114;2024-02-21T00:51:06;2.13;;;1.67;;
19621;SDS011;9958;33.196;-97.114;2024-02-21T00:53:36;5.75;;;1.77;;
19621;SDS011;9958;33.196;-97.114;2024-02-21T00:56:04;4.20;;;2.03;;
19621;SDS011;9958;33.196;-97.114;2024-02-21T00:58:33;2.58;;;2.00;;
19621;SDS011;9958;33.196;-97.114;2024-02-21T01:01:01;4.70;;;1.90;;
19621;SDS011;9958;33.196;-97.114;2024-02-21T01:03:33;3.55;;;1.80;;
19621;SDS011;9958;33.196;-97.114;2024-02-21T01:06:01;9.05;;;2.20;;
19621;SDS011;9958;33.196;-97.114;2024-02-21T01:08:30;5.45;;;2.17;;
19621;SDS011;9958;33.196;-97.114;2024-02-21T01:11:00;5.53;;;2.33;;
19621;SDS011;9958;33.196;-97.114;2024-02-21T01:13:28;3.30;;;1.92;;
19621;SDS011;9958;33.196;-97.114;2024-02-21T01:15:56;2.83;;;2.15;;
19621;SDS011;9958;33.196;-97.114;2024-02-21T01:18:25;4.13;;;1.98;;
19621;SDS011;9958;33.196;-97.114;2024-02-21T01:20:53;2.42;;;1.90;;
19621;SDS011;9958;33.196;-97.114;2024-02-21T01:23:21;1.75;;;1.65;;
19621;SDS011;9958;33.196;-97.114;2024-02-21T01:25:49;4.85;;;2.30;;
19621;SDS011;9958;33.196;-97.114;2024-02-21T01:28:19;4.45;;;1.90;;
19621;SDS011;9958;33.196;-97.114;2024-02-21T01:30:48;4.45;;;2.00;;
19621;SDS011;9958;33.196;-97.114;2024-02-21T01:33:17;3.08;;;2.05;;
19621;SDS011;9958;33.196;-97.114;2024-02-21T01:35:45;5.88;;;2.17;;
19621;SDS011;9958;33.196;-97.114;2024-02-21T01:38:14;2.42;;;1.92;;
19621;SDS011;9958;33.196;-97.114;2024-02-21T01:40:42;6.18;;;2.40;;
19621;SDS011;9958;33.196;-97.114;2024-02-21T01:43:17;3.47;;;2.13;;
19621;SDS011;9958;33.196;-97.114;2024-02-21T01:45:48;3.72;;;2.13;;
19621;SDS011;9958;33.196;-97.114;2024-02-21T01:48:17;3.67;;;2.33;;
19621;SDS011;9958;33.196;-97.114;2024-02-21T01:50:47;5.38;;;1.92;;
19621;SDS011;9958;33.196;-97.114;2024-02-21T01:53:16;3.33;;;2.33;;
19621;SDS011;9958;33.196;-97.114;2024-02-21T01:55:48;5.20;;;1.92;;
19621;SDS011;9958;33.196;-97.114;2024-02-21T01:58:16;3.40;;;2.00;;
19621;SDS011;9958;33.196;-97.114;2024-02-21T02:00:47;3.20;;;2.08;;
19621;SDS011;9958;33.196;-97.114;2024-02-21T02:03:17;2.03;;;1.83;;
19621;SDS011;9958;33.196;-97.114;2024-02-21T02:05:45;2.40;;;2.10;;
19621;SDS011;9958;33.196;-97.114;2024-02-21T02:08:14;2.40;;;2.03;;
19621;SDS011;9958;33.196;-97.114;2024-02-21T02:10:43;2.33;;;1.70;;
19621;SDS011;9958;33.196;-97.114;2024-02-21T02:13:12;2.10;;;1.88;;
19621;SDS011;9958;33.196;-97.114;2024-02-21T02:15:40;2.95;;;2.17;;
19621;SDS011;9958;33.196;-97.114;2024-02-21T02:18:10;2.67;;;2.00;;
19621;SDS011;9958;33.196;-97.114;2024-02-21T02:20:39;2.13;;;1.90;;
19621;SDS011;9958;33.196;-97.114;2024-02-21T02:23:09;4.82;;;1.75;;
19621;SDS011;9958;33.196;-97.114;2024-02-21T02:25:40;1.73;;;1.60;;
19621;SDS011;9958;33.196;-97.114;2024-02-21T02:28:09;2.78;;;1.90;;
19621;SDS011;9958;33.196;-97.114;2024-02-21T02:30:37;4.07;;;2.08;;
19621;SDS011;9958;33.196;-97.114;2024-02-21T02:33:06;2.35;;;1.83;;
19621;SDS011;9958;33.196;-97.114;2024-02-21T02:35:34;3.72;;;2.13;;
19621;SDS011;9958;33.196;-97.114;2024-02-21T02:38:02;3.00;;;2.10;;
19621;SDS011;9958;33.196;-97.114;2024-02-21T02:40:31;1.80;;;1.70;;
19621;SDS011;9958;33.196;-97.114;2024-02-21T02:43:02;3.40;;;1.98;;
19621;SDS011;9958;33.196;-97.114;2024-02-21T02:45:30;3.05;;;1.92;;
19621;SDS011;9958;33.196;-97.114;2024-02-21T02:47:59;4.85;;;1.95;;
19621;SDS011;9958;33.196;-97.114;2024-02-21T02:50:27;2.30;;;1.90;;
19621;SDS011;9958;33.196;-97.114;2024-02-21T02:52:56;6.20;;;1.80;;
19621;SDS011;9958;33.196;-97.114;2024-02-21T02:55:24;3.33;;;1.92;;
19621;SDS011;9958;33.196;-97.114;2024-02-21T02:57:53;7.05;;;1.88;;
19621;SDS011;9958;33.196;-97.114;2024-02-21T03:00:24;1.88;;;1.77;;
19621;SDS011;9958;33.196;-97.114;2024-02-21T03:02:53;4.35;;;1.83;;
19621;SDS011;9958;33.196;-97.114;2024-02-21T03:05:21;3.35;;;1.85;;
19621;SDS011;9958;33.196;-97.114;2024-02-21T03:07:50;1.60;;;1.50;;
19621;SDS011;9958;33.196;-97.114;2024-02-21T03:10:18;1.80;;;1.63;;
19621;SDS011;9958;33.196;-97.114;2024-02-21T03:12:46;3.40;;;1.77;;
19621;SDS011;9958;33.196;-97.114;2024-02-21T03:15:14;3.95;;;1.88;;
19621;SDS011;9958;33.196;-97.114;2024-02-21T03:17:44;2.03;;;1.83;;
19621;SDS011;9958;33.196;-97.114;2024-02-21T03:20:13;1.83;;;1.70;;
19621;SDS011;9958;33.196;-97.114;2024-02-21T03:22:41;3.88;;;1.98;;
19621;SDS011;9958;33.196;-97.114;2024-02-21T03:25:09;2.55;;;1.63;;
19621;SDS011;9958;33.196;-97.114;2024-02-21T03:27:38;3.35;;;1.67;;
19621;SDS011;9958;33.196;-97.114;2024-02-21T03:30:06;2.72;;;2.10;;
19621;SDS011;9958;33.196;-97.114;2024-02-21T03:32:35;7.32;;;1.77;;
19621;SDS011;9958;33.196;-97.114;2024-02-21T03:35:06;2.60;;;1.60;;
19621;SDS011;9958;33.196;-97.114;2024-02-21T03:37:35;3.70;;;1.75;;
19621;SDS011;9958;33.196;-97.114;2024-02-21T03:40:06;3.15;;;1.83;;
19621;SDS011;9958;33.196;-97.114;2024-02-21T03:42:35;1.52;;;1.42;;
19621;SDS011;9958;33.196;-97.114;2024-02-21T03:45:04;4.45;;;1.80;;
19621;SDS011;9958;33.196;-97.114;2024-02-21T03:47:34;3.67;;;1.80;;
19621;SDS011;9958;33.196;-97.114;2024-02-21T03:50:02;5.55;;;1.65;;
19621;SDS011;9958;33.196;-97.114;2024-02-21T03:52:32;2.53;;;1.77;;
19621;SDS011;9958;33.196;-97.114;2024-02-21T03:55:00;3.33;;;1.60;;
19621;SDS011;9958;33.196;-97.114;2024-02-21T03:57:29;2.47;;;1.48;;
19621;SDS011;9958;33.196;-97.114;2024-02-21T03:59:57;2.03;;;1.45;;
19621;SDS011;9958;33.196;-97.114;2024-02-21T04:02:26;1.90;;;1.60;;
19621;SDS011;9958;33.196;-97.114;2024-02-21T04:04:54;1.65;;;1.50;;
19621;SDS011;9958;33.196;-97.114;2024-02-21T04:07:22;1.75;;;1.65;;
19621;SDS011;9958;33.196;-97.114;2024-02-21T04:09:53;1.98;;;1.58;;
19621;SDS011;9958;33.196;-97.114;2024-02-21T04:12:21;4.35;;;1.65;;
19621;SDS011;9958;33.196;-97.114;2024-02-21T04:14:49;1.77;;;1.67;;
19621;SDS011;9958;33.196;-97.114;2024-02-21T04:17:18;2.83;;;1.67;;
19621;SDS011;9958;33.196;-97.114;2024-02-21T04:19:46;2.85;;;2.08;;
19621;SDS011;9958;33.196;-97.114;2024-02-21T04:22:14;1.92;;;1.65;;
19621;SDS011;9958;33.196;-97.114;2024-02-21T04:24:42;1.95;;;1.75;;
19621;SDS011;9958;33.196;-97.114;2024-02-21T04:27:14;1.70;;;1.60;;
19621;SDS011;9958;33.196;-97.114;2024-02-21T04:29:42;2.38;;;1.92;;
19621;SDS011;9958;33.196;-97.114;2024-02-21T04:32:11;4.53;;;2.00;;
19621;SDS011;9958;33.196;-97.114;2024-02-21T04:34:40;2.95;;;1.60;;
19621;SDS011;9958;33.196;-97.114;2024-02-21T04:37:09;3.75;;;1.60;;
19621;SDS011;9958;33.196;-97.114;2024-02-21T04:39:37;2.55;;;1.58;;
19621;SDS011;9958;33.196;-97.114;2024-02-21T04:42:06;4.35;;;2.10;;
19621;SDS011;9958;33.196;-97.114;2024-02-21T04:44:36;3.35;;;1.85;;
19621;SDS011;9958;33.196;-97.114;2024-02-21T04:47:04;2.17;;;1.98;;
19621;SDS011;9958;33.196;-97.114;2024-02-21T04:49:33;2.15;;;1.60;;
19621;SDS011;9958;33.196;-97.114;2024-02-21T04:52:02;5.28;;;2.30;;
19621;SDS011;9958;33.196;-97.114;2024-02-21T04:54:30;2.45;;;1.88;;
19621;SDS011;9958;33.196;-97.114;2024-02-21T04:57:00;1.92;;;1.70;;
19621;SDS011;9958;33.196;-97.114;2024-02-21T04:59:29;5.18;;;1.60;;
19621;SDS011;9958;33.196;-97.114;2024-02-21T05:01:59;2.10;;;1.90;;
19621;SDS011;9958;33.196;-97.114;2024-02-21T05:04:27;2.72;;;1.60;;
19621;SDS011;9958;33.196;-97.114;2024-02-21T05:06:55;3.78;;;2.00;;
19621;SDS011;9958;33.196;-97.114;2024-02-21T05:09:24;2.85;;;1.73;;
19621;SDS011;9958;33.196;-97.114;2024-02-21T05:11:52;3.60;;;2.20;;
19621;SDS011;9958;33.196;-97.114;2024-02-21T05:14:20;2.22;;;1.95;;
19621;SDS011;9958;33.196;-97.114;2024-02-21T05:16:49;1.85;;;1.67;;
19621;SDS011;9958;33.196;-97.114;2024-02-21T05:19:18;5.45;;;2.05;;
19621;SDS011;9958;33.196;-97.114;2024-02-21T05:21:47;1.73;;;1.60;;
19621;SDS011;9958;33.196;-97.114;2024-02-21T05:24:15;3.22;;;2.28;;
19621;SDS011;9958;33.196;-97.114;2024-02-21T05:26:43;4.10;;;1.75;;
19621;SDS011;9958;33.196;-97.114;2024-02-21T05:29:12;3.65;;;1.73;;
19621;SDS011;9958;33.196;-97.114;2024-02-21T05:31:54;3.90;;;1.70;;
19621;SDS011;9958;33.196;-97.114;2024-02-21T05:34:24;3.25;;;2.17;;
19621;SDS011;9958;33.196;-97.114;2024-02-21T05:36:53;2.83;;;2.03;;
19621;SDS011;9958;33.196;-97.114;2024-02-21T05:39:23;4.05;;;1.98;;
19621;SDS011;9958;33.196;-97.114;2024-02-21T05:41:51;2.13;;;1.92;;
19621;SDS011;9958;33.196;-97.114;2024-02-21T05:44:19;2.92;;;2.00;;
19621;SDS011;9958;33.196;-97.114;2024-02-21T05:46:48;6.78;;;2.25;;
19621;SDS011;9958;33.196;-97.114;2024-02-21T05:49:16;2.33;;;2.13;;
19621;SDS011;9958;33.196;-97.114;2024-02-21T05:51:46;2.90;;;1.95;;
19621;SDS011;9958;33.196;-97.114;2024-02-21T05:54:15;4.75;;;2.13;;
19621;SDS011;9958;33.196;-97.114;2024-02-21T05:56:46;2.78;;;1.80;;
19621;SDS011;9958;33.196;-97.114;2024-02-21T05:59:14;1.70;;;1.60;;
19621;SDS011;9958;33.196;-97.114;2024-02-21T06:01:42;3.08;;;1.90;;
19621;SDS011;9958;33.196;-97.114;2024-02-21T06:04:11;2.75;;;2.00;;
19621;SDS011;9958;33.196;-97.114;2024-02-21T06:06:39;4.72;;;2.08;;
19621;SDS011;9958;33.196;-97.114;2024-02-21T06:09:09;3.97;;;2.20;;
19621;SDS011;9958;33.196;-97.114;2024-02-21T06:11:37;1.88;;;1.65;;
19621;SDS011;9958;33.196;-97.114;2024-02-21T06:14:06;3.25;;;1.88;;
19621;SDS011;9958;33.196;-97.114;2024-02-21T06:16:34;2.63;;;1.98;;
19621;SDS011;9958;33.196;-97.114;2024-02-21T06:19:02;2.17;;;1.98;;
19621;SDS011;9958;33.196;-97.114;2024-02-21T06:21:30;2.10;;;1.90;;
19621;SDS011;9958;33.196;-97.114;2024-02-21T06:23:59;2.30;;;1.63;;
19621;SDS011;9958;33.196;-97.114;2024-02-21T06:26:29;2.25;;;2.05;;
19621;SDS011;9958;33.196;-97.114;2024-02-21T06:28:57;2.20;;;2.00;;
19621;SDS011;9958;33.196;-97.114;2024-02-21T06:31:27;4.28;;;2.25;;
19621;SDS011;9958;33.196;-97.114;2024-02-21T06:33:56;1.90;;;1.80;;
19621;SDS011;9958;33.196;-97.114;2024-02-21T06:36:25;2.08;;;1.88;;
19621;SDS011;9958;33.196;-97.114;2024-02-21T06:38:53;2.60;;;2.00;;
19621;SDS011;9958;33.196;-97.114;2024-02-21T06:41:21;2.00;;;1.83;;
19621;SDS011;9958;33.196;-97.114;2024-02-21T06:43:51;1.83;;;1.67;;
19621;SDS011;9958;33.196;-97.114;2024-02-21T06:46:23;2.90;;;2.35;;
19621;SDS011;9958;33.196;-97.114;2024-02-21T06:48:52;2.80;;;1.77;;
19621;SDS011;9958;33.196;-97.114;2024-02-21T06:51:21;3.05;;;2.05;;
19621;SDS011;9958;33.196;-97.114;2024-02-21T06:53:50;2.00;;;1.80;;
19621;SDS011;9958;33.196;-97.114;2024-02-21T06:56:18;2.22;;;2.03;;
19621;SDS011;9958;33.196;-97.114;2024-02-21T06:58:47;2.13;;;1.92;;
19621;SDS011;9958;33.196;-97.114;2024-02-21T07:01:16;3.47;;;2.13;;
19621;SDS011;9958;33.196;-97.114;2024-02-21T07:03:45;1.83;;;1.63;;
19621;SDS011;9958;33.196;-97.114;2024-02-21T07:06:13;2.30;;;1.98;;
19621;SDS011;9958;33.196;-97.114;2024-02-21T07:08:41;2.53;;;1.90;;
19621;SDS011;9958;33.196;-97.114;2024-02-21T07:11:10;2.90;;;1.83;;
19621;SDS011;9958;33.196;-97.114;2024-02-21T07:13:38;2.55;;;1.98;;
19621;SDS011;9958;33.196;-97.114;2024-02-21T07:16:07;2.22;;;1.80;;
19621;SDS011;9958;33.196;-97.114;2024-02-21T07:18:37;3.45;;;2.20;;
19621;SDS011;9958;33.196;-97.114;2024-02-21T07:21:05;6.28;;;2.10;;
19621;SDS011;9958;33.196;-97.114;2024-02-21T07:23:33;3.08;;;1.92;;
19621;SDS011;9958;33.196;-97.114;2024-02-21T07:26:01;3.80;;;1.92;;
19621;SDS011;9958;33.196;-97.114;2024-02-21T07:28:31;3.17;;;2.00;;
19621;SDS011;9958;33.196;-97.114;2024-02-21T07:30:59;6.32;;;2.10;;
19621;SDS011;9958;33.196;-97.114;2024-02-21T07:33:27;6.70;;;2.30;;
19621;SDS011;9958;33.196;-97.114;2024-02-21T07:35:57;3.20;;;2.00;;
19621;SDS011;9958;33.196;-97.114;2024-02-21T07:38:26;2.70;;;2.00;;
19621;SDS011;9958;33.196;-97.114;2024-02-21T07:40:54;3.92;;;1.90;;
19621;SDS011;9958;33.196;-97.114;2024-02-21T07:43:22;3.97;;;2.00;;
19621;SDS011;9958;33.196;-97.114;2024-02-21T07:45:52;2.85;;;1.88;;
19621;SDS011;9958;33.196;-97.114;2024-02-21T07:48:20;2.47;;;2.08;;
19621;SDS011;9958;33.196;-97.114;2024-02-21T07:50:50;2.38;;;1.85;;
19621;SDS011;9958;33.196;-97.114;2024-02-21T07:53:19;2.20;;;2.00;;
19621;SDS011;9958;33.196;-97.114;2024-02-21T07:55:48;2.85;;;2.20;;
19621;SDS011;9958;33.196;-97.114;2024-02-21T07:58:16;2.45;;;2.10;;
19621;SDS011;9958;33.196;-97.114;2024-02-21T08:00:44;3.33;;;1.80;;
19621;SDS011;9958;33.196;-97.114;2024-02-21T08:03:13;3.95;;;2.20;;
19621;SDS011;9958;33.196;-97.114;2024-02-21T08:05:43;5.38;;;1.95;;
19621;SDS011;9958;33.196;-97.114;2024-02-21T08:08:11;4.10;;;2.65;;
19621;SDS011;9958;33.196;-97.114;2024-02-21T08:10:45;3.67;;;2.10;;
19621;SDS011;9958;33.196;-97.114;2024-02-21T08:13:13;3.65;;;2.00;;
19621;SDS011;9958;33.196;-97.114;2024-02-21T08:15:42;3.22;;;1.90;;
19621;SDS011;9958;33.196;-97.114;2024-02-21T08:18:10;6.30;;;2.33;;
19621;SDS011;9958;33.196;-97.114;2024-02-21T08:20:38;3.28;;;2.00;;
19621;SDS011;9958;33.196;-97.114;2024-02-21T08:23:07;2.45;;;2.17;;
19621;SDS011;9958;33.196;-97.114;2024-02-21T08:25:35;2.75;;;2.30;;
19621;SDS011;9958;33.196;-97.114;2024-02-21T08:28:05;2.90;;;1.85;;
19621;SDS011;9958;33.196;-97.114;2024-02-21T08:30:33;2.33;;;2.13;;
19621;SDS011;9958;33.196;-97.114;2024-02-21T08:33:02;2.58;;;2.30;;
19621;SDS011;9958;33.196;-97.114;2024-02-21T08:35:30;2.95;;;2.17;;
19621;SDS011;9958;33.196;-97.114;2024-02-21T08:37:59;2.08;;;1.83;;
19621;SDS011;9958;33.196;-97.114;2024-02-21T08:40:27;3.00;;;2.05;;
19621;SDS011;9958;33.196;-97.114;2024-02-21T08:42:55;3.22;;;2.20;;
19621;SDS011;9958;33.196;-97.114;2024-02-21T08:45:25;4.10;;;2.30;;
19621;SDS011;9958;33.196;-97.114;2024-02-21T08:47:54;2.05;;;1.85;;
19621;SDS011;9958;33.196;-97.114;2024-02-21T08:50:22;2.53;;;2.10;;
19621;SDS011;9958;33.196;-97.114;2024-02-21T08:52:51;3.28;;;2.30;;
19621;SDS011;9958;33.196;-97.114;2024-02-21T08:55:20;3.53;;;2.30;;
19621;SDS011;9958;33.196;-97.114;2024-02-21T08:57:49;3.42;;;2.60;;
19621;SDS011;9958;33.196;-97.114;2024-02-21T09:00:17;2.53;;;2.10;;
19621;SDS011;9958;33.196;-97.114;2024-02-21T09:02:53;2.75;;;2.30;;
19621;SDS011;9958;33.196;-97.114;2024-02-21T09:05:22;3.28;;;2.13;;
19621;SDS011;9958;33.196;-97.114;2024-02-21T09:07:51;2.13;;;1.92;;
19621;SDS011;9958;33.196;-97.114;2024-02-21T09:10:19;2.85;;;2.08;;
19621;SDS011;9958;33.196;-97.114;2024-02-21T09:12:47;2.65;;;2.20;;
19621;SDS011;9958;33.196;-97.114;2024-02-21T09:15:15;4.55;;;2.90;;
19621;SDS011;9958;33.196;-97.114;2024-02-21T09:17:44;3.88;;;2.10;;
19621;SDS011;9958;33.196;-97.114;2024-02-21T09:20:14;2.92;;;2.00;;
19621;SDS011;9958;33.196;-97.114;2024-02-21T09:22:43;3.60;;;1.92;;
19621;SDS011;9958;33.196;-97.114;2024-02-21T09:25:12;4.55;;;2.13;;
19621;SDS011;9958;33.196;-97.114;2024-02-21T09:27:40;4.10;;;2.22;;
19621;SDS011;9958;33.196;-97.114;2024-02-21T09:30:09;2.20;;;2.00;;
19621;SDS011;9958;33.196;-97.114;2024-02-21T09:32:37;3.58;;;2.10;;
19621;SDS011;9958;33.196;-97.114;2024-02-21T09:35:06;7.03;;;2.67;;
19621;SDS011;9958;33.196;-97.114;2024-02-21T09:37:36;6.90;;;1.88;;
19621;SDS011;9958;33.196;-97.114;2024-02-21T09:40:05;2.30;;;2.10;;
19621;SDS011;9958;33.196;-97.114;2024-02-21T09:42:36;3.58;;;2.50;;
19621;SDS011;9958;33.196;-97.114;2024-02-21T09:45:07;2.17;;;1.95;;
19621;SDS011;9958;33.196;-97.114;2024-02-21T09:47:43;2.58;;;2.17;;
19621;SDS011;9958;33.196;-97.114;2024-02-21T09:50:18;4.53;;;2.20;;
19621;SDS011;9958;33.196;-97.114;2024-02-21T09:52:49;4.95;;;2.38;;
19621;SDS011;9958;33.196;-97.114;2024-02-21T09:55:18;2.30;;;2.10;;
19621;SDS011;9958;33.196;-97.114;2024-02-21T09:57:47;3.67;;;2.10;;
19621;SDS011;9958;33.196;-97.114;2024-02-21T10:00:18;2.20;;;1.90;;
19621;SDS011;9958;33.196;-97.114;2024-02-21T10:02:48;2.50;;;2.03;;
19621;SDS011;9958;33.196;-97.114;2024-02-21T10:05:16;4.45;;;2.10;;
19621;SDS011;9958;33.196;-97.114;2024-02-21T10:07:45;2.20;;;2.00;;
19621;SDS011;9958;33.196;-97.114;2024-02-21T10:10:15;4.13;;;2.60;;
19621;SDS011;9958;33.196;-97.114;2024-02-21T10:12:50;2.53;;;2.33;;
19621;SDS011;9958;33.196;-97.114;2024-02-21T10:15:20;4.60;;;2.55;;
19621;SDS011;9958;33.196;-97.114;2024-02-21T10:17:49;5.25;;;2.30;;
19621;SDS011;9958;33.196;-97.114;2024-02-21T10:20:25;2.95;;;2.13;;
19621;SDS011;9958;33.196;-97.114;2024-02-21T10:23:00;2.13;;;1.92;;
19621;SDS011;9958;33.196;-97.114;2024-02-21T10:25:35;2.97;;;2.33;;
19621;SDS011;9958;33.196;-97.114;2024-02-21T10:28:07;4.63;;;2.47;;
19621;SDS011;9958;33.196;-97.114;2024-02-21T10:30:35;3.17;;;2.20;;
19621;SDS011;9958;33.196;-97.114;2024-02-21T10:33:04;4.40;;;2.20;;
19621;SDS011;9958;33.196;-97.114;2024-02-21T10:35:33;2.83;;;2.30;;
19621;SDS011;9958;33.196;-97.114;2024-02-21T10:38:02;2.05;;;1.77;;
19621;SDS011;9958;33.196;-97.114;2024-02-21T10:40:30;2.78;;;2.17;;
19621;SDS011;9958;33.196;-97.114;2024-02-21T10:43:01;4.70;;;2.38;;
19621;SDS011;9958;33.196;-97.114;2024-02-21T10:45:30;3.20;;;2.05;;
19621;SDS011;9958;33.196;-97.114;2024-02-21T10:48:03;4.65;;;2.33;;
19621;SDS011;9958;33.196;-97.114;2024-02-21T10:50:40;2.88;;;2.50;;
19621;SDS011;9958;33.196;-97.114;2024-02-21T10:53:19;4.65;;;2.53;;
19621;SDS011;9958;33.196;-97.114;2024-02-21T10:55:55;2.67;;;2.33;;
19621;SDS011;9958;33.196;-97.114;2024-02-21T10:58:35;4.88;;;2.30;;
19621;SDS011;9958;33.196;-97.114;2024-02-21T11:01:04;3.38;;;2.40;;
19621;SDS011;9958;33.196;-97.114;2024-02-21T11:03:33;3.67;;;2.10;;
19621;SDS011;9958;33.196;-97.114;2024-02-21T11:06:02;3.95;;;2.60;;
19621;SDS011;9958;33.196;-97.114;2024-02-21T11:08:31;4.35;;;2.80;;
19621;SDS011;9958;33.196;-97.114;2024-02-21T11:10:59;3.85;;;2.33;;
19621;SDS011;9958;33.196;-97.114;2024-02-21T11:13:31;3.35;;;2.45;;
19621;SDS011;9958;33.196;-97.114;2024-02-21T11:16:10;3.42;;;2.50;;
19621;SDS011;9958;33.196;-97.114;2024-02-21T11:18:48;4.05;;;2.10;;
19621;SDS011;9958;33.196;-97.114;2024-02-21T11:21:17;5.45;;;2.30;;
19621;SDS011;9958;33.196;-97.114;2024-02-21T11:26:23;3.30;;;2.35;;
19621;SDS011;9958;33.196;-97.114;2024-02-21T11:28:58;2.80;;;2.38;;
19621;SDS011;9958;33.196;-97.114;2024-02-21T11:31:39;3.60;;;2.60;;
19621;SDS011;9958;33.196;-97.114;2024-02-21T11:34:08;4.07;;;2.60;;
19621;SDS011;9958;33.196;-97.114;2024-02-21T11:36:46;3.40;;;2.85;;
19621;SDS011;9958;33.196;-97.114;2024-02-21T11:39:22;4.65;;;2.50;;
19621;SDS011;9958;33.196;-97.114;2024-02-21T11:42:01;4.97;;;2.70;;
19621;SDS011;9958;33.196;-97.114;2024-02-21T11:44:31;2.95;;;2.63;;
19621;SDS011;9958;33.196;-97.114;2024-02-21T11:47:01;4.63;;;2.67;;
19621;SDS011;9958;33.196;-97.114;2024-02-21T11:49:30;8.40;;;2.83;;
19621;SDS011;9958;33.196;-97.114;2024-02-21T11:51:58;2.78;;;2.47;;
19621;SDS011;9958;33.196;-97.114;2024-02-21T11:54:29;5.18;;;2.72;;
19621;SDS011;9958;33.196;-97.114;2024-02-21T11:56:58;3.35;;;3.03;;
19621;SDS011;9958;33.196;-97.114;2024-02-21T11:59:26;4.45;;;2.97;;
19621;SDS011;9958;33.196;-97.114;2024-02-21T12:01:57;3.22;;;2.45;;
19621;SDS011;9958;33.196;-97.114;2024-02-21T12:04:28;4.55;;;2.95;;
19621;SDS011;9958;33.196;-97.114;2024-02-21T12:06:57;5.78;;;2.67;;
19621;SDS011;9958;33.196;-97.114;2024-02-21T12:09:26;2.88;;;2.55;;
19621;SDS011;9958;33.196;-97.114;2024-02-21T12:11:57;4.00;;;2.50;;
19621;SDS011;9958;33.196;-97.114;2024-02-21T12:14:27;3.78;;;2.45;;
19621;SDS011;9958;33.196;-97.114;2024-02-21T12:16:57;2.75;;;2.20;;
19621;SDS011;9958;33.196;-97.114;2024-02-21T12:19:26;5.15;;;2.92;;
19621;SDS011;9958;33.196;-97.114;2024-02-21T12:21:58;3.03;;;2.67;;
19621;SDS011;9958;33.196;-97.114;2024-02-21T12:24:31;4.47;;;2.63;;
19621;SDS011;9958;33.196;-97.114;2024-02-21T12:26:59;6.57;;;2.75;;
19621;SDS011;9958;33.196;-97.114;2024-02-21T12:29:29;4.07;;;3.13;;
19621;SDS011;9958;33.196;-97.114;2024-02-21T12:31:58;5.90;;;2.90;;
19621;SDS011;9958;33.196;-97.114;2024-02-21T12:34:26;3.35;;;2.75;;
19621;SDS011;9958;33.196;-97.114;2024-02-21T12:36:59;3.97;;;2.88;;
19621;SDS011;9958;33.196;-97.114;2024-02-21T12:39:28;3.67;;;2.90;;
19621;SDS011;9958;33.196;-97.114;2024-02-21T12:41:57;3.65;;;2.85;;
19621;SDS011;9958;33.196;-97.114;2024-02-21T12:44:26;3.45;;;3.15;;
19621;SDS011;9958;33.196;-97.114;2024-02-21T12:46:54;5.05;;;3.25;;
19621;SDS011;9958;33.196;-97.114;2024-02-21T12:49:23;3.80;;;3.35;;
19621;SDS011;9958;33.196;-97.114;2024-02-21T12:51:53;4.75;;;3.03;;
19621;SDS011;9958;33.196;-97.114;2024-02-21T12:54:23;2.83;;;2.60;;
19621;SDS011;9958;33.196;-97.114;2024-02-21T12:56:51;4.97;;;2.95;;
19621;SDS011;9958;33.196;-97.114;2024-02-21T12:59:20;3.72;;;3.00;;
19621;SDS011;9958;33.196;-97.114;2024-02-21T13:01:48;4.85;;;2.70;;
19621;SDS011;9958;33.196;-97.114;2024-02-21T13:04:18;3.88;;;2.72;;
19621;SDS011;9958;33.196;-97.114;2024-02-21T13:06:47;3.70;;;3.22;;
19621;SDS011;9958;33.196;-97.114;2024-02-21T13:09:15;4.60;;;3.25;;
19621;SDS011;9958;33.196;-97.114;2024-02-21T13:11:45;3.75;;;3.13;;
19621;SDS011;9958;33.196;-97.114;2024-02-21T13:14:14;3.38;;;2.80;;
19621;SDS011;9958;33.196;-97.114;2024-02-21T13:16:42;4.85;;;3.28;;
19621;SDS011;9958;33.196;-97.114;2024-02-21T13:19:11;6.28;;;3.08;;
19621;SDS011;9958;33.196;-97.114;2024-02-21T13:21:42;4.95;;;3.30;;
19621;SDS011;9958;33.196;-97.114;2024-02-21T13:24:11;3.63;;;3.15;;
19621;SDS011;9958;33.196;-97.114;2024-02-21T13:26:39;5.88;;;3.40;;
19621;SDS011;9958;33.196;-97.114;2024-02-21T13:29:09;7.45;;;3.50;;
19621;SDS011;9958;33.196;-97.114;2024-02-21T13:31:37;6.05;;;3.67;;
19621;SDS011;9958;33.196;-97.114;2024-02-21T13:34:06;3.92;;;3.10;;
19621;SDS011;9958;33.196;-97.114;2024-02-21T13:36:35;6.15;;;3.38;;
19621;SDS011;9958;33.196;-97.114;2024-02-21T13:39:03;6.47;;;3.60;;
19621;SDS011;9958;33.196;-97.114;2024-02-21T13:41:32;4.28;;;3.30;;
19621;SDS011;9958;33.196;-97.114;2024-02-21T13:44:01;5.57;;;3.55;;
19621;SDS011;9958;33.196;-97.114;2024-02-21T13:46:31;4.43;;;3.38;;
19621;SDS011;9958;33.196;-97.114;2024-02-21T13:49:02;6.75;;;3.88;;
19621;SDS011;9958;33.196;-97.114;2024-02-21T13:51:32;4.57;;;3.45;;
19621;SDS011;9958;33.196;-97.114;2024-02-21T13:54:02;8.70;;;4.47;;
19621;SDS011;9958;33.196;-97.114;2024-02-21T13:56:34;5.00;;;3.42;;
19621;SDS011;9958;33.196;-97.114;2024-02-21T13:59:03;6.50;;;3.47;;
19621;SDS011;9958;33.196;-97.114;2024-02-21T14:01:33;4.32;;;3.47;;
19621;SDS011;9958;33.196;-97.114;2024-02-21T14:04:01;5.07;;;3.97;;
19621;SDS011;9958;33.196;-97.114;2024-02-21T14:06:29;8.40;;;4.38;;
19621;SDS011;9958;33.196;-97.114;2024-02-21T14:08:58;6.53;;;3.60;;
19621;SDS011;9958;33.196;-97.114;2024-02-21T14:11:26;6.97;;;3.47;;
19621;SDS011;9958;33.196;-97.114;2024-02-21T14:13:55;4.68;;;3.70;;
19621;SDS011;9958;33.196;-97.114;2024-02-21T14:16:24;7.57;;;3.97;;
19621;SDS011;9958;33.196;-97.114;2024-02-21T14:18:54;7.53;;;4.03;;
19621;SDS011;9958;33.196;-97.114;2024-02-21T14:21:22;5.28;;;3.75;;
19621;SDS011;9958;33.196;-97.114;2024-02-21T14:23:51;6.13;;;4.10;;
19621;SDS011;9958;33.196;-97.114;2024-02-21T14:26:19;6.32;;;4.25;;
19621;SDS011;9958;33.196;-97.114;2024-02-21T14:28:48;5.88;;;4.00;;
19621;SDS011;9958;33.196;-97.114;2024-02-21T14:31:16;6.38;;;4.55;;
19621;SDS011;9958;33.196;-97.114;2024-02-21T14:33:45;6.43;;;3.88;;
19621;SDS011;9958;33.196;-97.114;2024-02-21T14:36:14;4.68;;;4.18;;
19621;SDS011;9958;33.196;-97.114;2024-02-21T14:38:43;8.73;;;4.57;;
19621;SDS011;9958;33.196;-97.114;2024-02-21T14:41:10;4.32;;;3.38;;
19621;SDS011;9958;33.196;-97.114;2024-02-21T14:43:39;8.82;;;4.63;;
19621;SDS011;9958;33.196;-97.114;2024-02-21T14:46:09;9.48;;;4.20;;
19621;SDS011;9958;33.196;-97.114;2024-02-21T14:48:37;5.95;;;3.95;;